Springboro, PA

2:59 PM EDT on July 07, 2015 (GMT -0400)
Albion Cranesville | | Change Station
CLOSE
Current Station
Personal Weather Station
Location: Albion, PA
Elevation: 984 ft
Nearby Weather Stations

Elev 984 ft 41.89 °N, 80.35 °W | Updated 11 minutes ago

Mostly Cloudy
Mostly Cloudy
76.5 °F
Feels Like 78 °F
N
5.3
Wind Variable Wind from West

Today
High -- | Low -- °F
--% Chance of Precip.
Yesterday
High -- | Low -- °F
Precip. -- in
5:53 AM 8:58 PM
Waning Gibbous, 62% visible
Pressure 29.90 in
Visibility 5.0 miles
Clouds Scattered Clouds 3300 ft
Mostly Cloudy 4400 ft
Mostly Cloudy 5500 ft
Heat Index 78 °F
Dew Point 68 °F
Humidity 75%
Rainfall 0.00 in
Snow Depth Not available.
UV 6 out of 12
Pollen 2.50 out of 12
Air Quality Not available.
Flu Activity Not available.
METAR KGKJ 071853Z AUTO 23010G18KT 5SM HZ SCT033 BKN044 BKN055 27/20 A2993 RMK AO2 RAE40 SLP124 P0000 T02720200 TSNO

More Conditions Fewer Conditions

Pressure 29.90 in
Visibility 5.0 miles
Clouds Scattered Clouds 3300 ft
Mostly Cloudy 4400 ft
Mostly Cloudy 5500 ft
Heat Index 78 °F
Dew Point 68 °F
Humidity 75%
Rainfall 0.00 in
Snow Depth Not available.
UV 6 out of 12
Pollen 2.50 out of 12
Air Quality Not available.
Flu Activity Not available.
METAR KGKJ 071853Z AUTO 23010G18KT 5SM HZ SCT033 BKN044 BKN055 27/20 A2993 RMK AO2 RAE40 SLP124 P0000 T02720200 TSNO

More Conditions Fewer Conditions

10-Day Weather Forecast

×

Almanac

Astronomy

Jul. 07, 2015 Rise Set
Actual Time
Civil Twilight
Nautical Twilight
Astronomical Twilight
Moon
Length of Visible Light
Length of Day
Tomorrow will be .
, % of the Moon is Illuminated

Today's Extremes

State Highs State Lows

Community

WunderPhotos

Upload Photos

1,835,868 photos uploaded!

WunderBlogs® & News

Nearby

Air Quality

  Air Quality AQ Index Pollutant
Not available.

Snow Depth

Station Depth Elevation

Earthquake Activity

City Distance Mag. Time & Date
Minimum magnitude displayed is 2.5.

Coastal Water Temperatures

Place Temperature

Stations

Nearby Weather Stations

Station Location Temp. Windchill Dew Point Humidity Wind Precip. Elev Updated Type